createdAt,value
2016-01-01T00:00:56.769Z,89
2016-01-01T00:01:56.006Z,89
2016-01-01T00:02:55.306Z,89
2016-01-01T00:03:57.043Z,89
2016-01-01T00:04:56.296Z,89
2016-01-01T00:05:55.532Z,89
2016-01-01T00:06:54.770Z,89
2016-01-01T00:07:54.007Z,89
2016-01-01T00:08:53.260Z,89
2016-01-01T00:09:52.513Z,89
2016-01-01T00:10:51.750Z,89
2016-01-01T00:11:50.988Z,89
2016-01-01T00:12:50.284Z,89
2016-01-01T00:13:52.036Z,89
2016-01-01T00:14:51.274Z,89
2016-01-01T00:15:50.510Z,89
2016-01-01T00:16:49.748Z,89
2016-01-01T00:17:49.001Z,89
2016-01-01T00:18:48.253Z,89
2016-01-01T00:19:47.740Z,89
2016-01-01T00:20:46.993Z,89
2016-01-01T00:21:46.215Z,89
2016-01-01T00:22:45.514Z,89
2016-01-01T00:23:47.267Z,89
2016-01-01T00:24:46.504Z,89
2016-01-01T00:25:45.756Z,89
2016-01-01T00:26:44.979Z,89
2016-01-01T00:27:44.231Z,89
2016-01-01T00:28:43.468Z,89
2016-01-01T00:29:42.720Z,89
2016-01-01T00:30:41.957Z,89
2016-01-01T00:31:41.195Z,89
2016-01-01T00:32:40.495Z,89
2016-01-01T00:34:41.485Z,89
2016-01-01T00:35:40.737Z,89
2016-01-01T00:36:39.974Z,89
2016-01-01T00:37:39.211Z,89
2016-01-01T00:38:38.449Z,89
2016-01-01T00:39:37.715Z,89
2016-01-01T00:40:36.951Z,89
2016-01-01T00:41:36.173Z,89
2016-01-01T00:42:35.472Z,89
2016-01-01T00:43:37.240Z,89
2016-01-01T00:44:36.463Z,89
2016-01-01T00:45:35.731Z,89
2016-01-01T00:46:35.218Z,89
2016-01-01T00:47:34.706Z,89
2016-01-01T00:48:34.208Z,89
2016-01-01T00:49:33.696Z,89
2016-01-01T00:51:32.467Z,89
2016-01-01T00:52:31.984Z,89
2016-01-01T00:53:33.738Z,89
2016-01-01T00:54:32.975Z,89
2016-01-01T00:55:32.228Z,89
2016-01-01T00:56:31.465Z,89
2016-01-01T00:57:30.702Z,89
2016-01-01T00:58:29.939Z,89
2016-01-01T00:59:29.192Z,89
2016-01-01T01:00:28.444Z,89
2016-01-01T01:01:27.681Z,89
2016-01-01T01:02:26.965Z,89
2016-01-01T01:03:28.718Z,89
2016-01-01T01:04:27.956Z,89
2016-01-01T01:05:27.208Z,89
2016-01-01T01:06:26.476Z,89
2016-01-01T01:07:25.932Z,89
2016-01-01T01:08:25.167Z,89
2016-01-01T01:09:24.669Z,89
2016-01-01T01:10:23.922Z,89
2016-01-01T01:11:23.409Z,89
2016-01-01T01:12:22.709Z,89
2016-01-01T01:13:24.462Z,89
2016-01-01T01:14:23.949Z,89
2016-01-01T01:15:23.452Z,89
2016-01-01T01:16:22.954Z,89
2016-01-01T01:17:22.036Z,89
2016-01-01T01:18:21.678Z,89
2016-01-01T01:19:21.182Z,89
2016-01-01T01:20:20.684Z,89
2016-01-01T01:21:20.187Z,89
2016-01-01T01:22:19.832Z,89
2016-01-01T01:23:21.475Z,89
2016-01-01T01:24:20.977Z,89
2016-01-01T01:25:20.477Z,89
2016-01-01T01:26:19.980Z,89
2016-01-01T01:27:19.468Z,89
2016-01-01T01:28:18.971Z,89
2016-01-01T01:29:18.457Z,89
2016-01-01T01:30:17.960Z,89
2016-01-01T01:31:17.463Z,89
2016-01-01T01:32:17.013Z,89
2016-01-01T01:33:18.766Z,90
2016-01-01T01:34:18.518Z,90
2016-01-01T01:35:18.271Z,90
2016-01-01T01:36:18.024Z,90
2016-01-01T01:37:17.777Z,90
2016-01-01T01:38:17.530Z,89
2016-01-01T01:39:17.016Z,89
2016-01-01T01:40:16.519Z,89
2016-01-01T01:41:16.022Z,89
2016-01-01T01:42:15.572Z,89
2016-01-01T01:43:17.324Z,89
2016-01-01T01:44:16.562Z,89
2016-01-01T01:45:16.049Z,89
2016-01-01T01:46:15.286Z,89
2016-01-01T01:47:14.538Z,89
2016-01-01T01:48:13.776Z,89
2016-01-01T01:49:13.012Z,89
2016-01-01T01:50:12.515Z,89
2016-01-01T01:51:12.003Z,89
2016-01-01T01:52:11.568Z,89
2016-01-01T01:53:13.304Z,89
2016-01-01T01:54:12.793Z,89
2016-01-01T01:55:12.045Z,89
2016-01-01T01:56:11.295Z,89
2016-01-01T01:57:10.532Z,89
2016-01-01T01:58:09.769Z,89
2016-01-01T01:59:09.007Z,89
2016-01-01T02:00:08.243Z,89
2016-01-01T02:01:07.481Z,89
2016-01-01T02:02:06.776Z,89
2016-01-01T02:03:08.528Z,89
2016-01-01T02:04:08.015Z,89
2016-01-01T02:05:07.518Z,89
2016-01-01T02:06:07.021Z,89
2016-01-01T02:07:06.507Z,89
2016-01-01T02:08:06.010Z,89
2016-01-01T02:09:05.514Z,89
2016-01-01T02:10:05.001Z,89
2016-01-01T02:11:04.504Z,89
2016-01-01T02:12:04.054Z,90
2016-01-01T02:13:05.807Z,89
2016-01-01T02:14:05.309Z,90
2016-01-01T02:15:05.046Z,90
2016-01-01T02:16:04.815Z,90
2016-01-01T02:17:04.552Z,90
2016-01-01T02:18:04.320Z,90
2016-01-01T02:19:04.072Z,90
2016-01-01T02:20:03.841Z,90
2016-01-01T02:21:03.578Z,90
2016-01-01T02:22:03.393Z,90
2016-01-01T02:23:05.084Z,90
2016-01-01T02:24:04.899Z,90
2016-01-01T02:25:04.902Z,90
2016-01-01T02:26:04.904Z,90
2016-01-01T02:27:04.923Z,90
2016-01-01T02:28:04.676Z,90
2016-01-01T02:29:04.694Z,90
2016-01-01T02:30:04.696Z,90
2016-01-01T02:31:04.965Z,90
2016-01-01T02:32:05.295Z,90
2016-01-01T02:33:07.033Z,90
2016-01-01T02:34:07.317Z,90
2016-01-01T02:35:07.570Z,90
2016-01-01T02:37:08.090Z,90
2016-01-01T02:38:08.359Z,90
2016-01-01T02:39:08.628Z,90
2016-01-01T02:40:08.895Z,90
2016-01-01T02:41:09.163Z,90
2016-01-01T02:42:09.478Z,90
2016-01-01T02:43:11.200Z,90
2016-01-01T02:44:11.765Z,90
2016-01-01T02:45:12.002Z,90
2016-01-01T02:46:12.522Z,90
2016-01-01T02:47:13.055Z,90
2016-01-01T02:48:13.558Z,91
2016-01-01T02:49:14.341Z,91
2016-01-01T02:50:15.141Z,91
2016-01-01T02:51:15.910Z,91
2016-01-01T02:52:16.741Z,91
2016-01-01T02:53:18.430Z,91
2016-01-01T02:54:19.262Z,91
2016-01-01T02:55:20.311Z,91
2016-01-01T02:56:21.346Z,91
2016-01-01T02:57:22.379Z,92
2016-01-01T02:58:23.663Z,91
2016-01-01T02:59:24.697Z,91
2016-01-01T03:00:25.746Z,91
2016-01-01T03:01:26.780Z,91
2016-01-01T03:02:27.877Z,91
2016-01-01T03:03:29.630Z,91
2016-01-01T03:04:30.398Z,91
2016-01-01T03:05:31.307Z,91
2016-01-01T03:06:31.966Z,91
2016-01-01T03:07:32.751Z,91
2016-01-01T03:08:33.519Z,91
2016-01-01T03:09:34.302Z,91
2016-01-01T03:10:35.087Z,91
2016-01-01T03:11:35.870Z,91
2016-01-01T03:12:36.701Z,91
2016-01-01T03:13:38.438Z,91
2016-01-01T03:14:39.222Z,91
2016-01-01T03:15:40.006Z,91
2016-01-01T03:16:40.790Z,91
2016-01-01T03:17:41.574Z,91
2016-01-01T03:18:42.343Z,91
2016-01-01T03:19:43.126Z,91
2016-01-01T03:20:43.895Z,91
2016-01-01T03:21:44.679Z,91
2016-01-01T03:22:45.525Z,91
2016-01-01T03:23:47.278Z,91
2016-01-01T03:24:48.047Z,91
2016-01-01T03:25:48.814Z,91
2016-01-01T03:26:49.598Z,91
2016-01-01T03:27:50.384Z,91
2016-01-01T03:28:51.167Z,91
2016-01-01T03:29:51.936Z,91
2016-01-01T03:30:52.720Z,91
2016-01-01T03:31:53.503Z,91
2016-01-01T03:32:54.350Z,91
2016-01-01T03:33:56.086Z,91
2016-01-01T03:34:56.855Z,91
2016-01-01T03:35:57.639Z,91
2016-01-01T03:36:58.423Z,91
2016-01-01T03:37:59.208Z,91
2016-01-01T03:38:59.975Z,91
2016-01-01T03:40:00.759Z,91
2016-01-01T03:41:01.730Z,91
2016-01-01T03:42:02.827Z,91
2016-01-01T03:43:03.939Z,91
2016-01-01T03:44:05.677Z,92
2016-01-01T03:45:06.961Z,92
2016-01-01T03:46:08.261Z,92
2016-01-01T03:47:09.544Z,92
2016-01-01T03:48:10.860Z,92
2016-01-01T03:49:12.127Z,92
2016-01-01T03:50:13.427Z,92
2016-01-01T03:51:14.711Z,92
2016-01-01T03:52:16.011Z,92
2016-01-01T03:53:16.936Z,92
2016-01-01T03:54:19.141Z,92
2016-01-01T03:55:20.394Z,92
2016-01-01T03:56:21.678Z,92
2016-01-01T03:57:22.994Z,92
2016-01-01T03:58:23.840Z,92
2016-01-01T03:59:25.561Z,92
2016-01-01T04:00:26.846Z,92
2016-01-01T04:01:28.146Z,92
2016-01-01T04:02:29.445Z,92
2016-01-01T04:03:30.776Z,92
2016-01-01T04:04:32.528Z,92
2016-01-01T04:05:33.391Z,92
2016-01-01T04:06:35.127Z,92
2016-01-01T04:07:36.412Z,92
2016-01-01T04:08:37.711Z,92
2016-01-01T04:09:38.980Z,92
2016-01-01T04:10:40.279Z,92
2016-01-01T04:11:41.563Z,91
2016-01-01T04:12:42.863Z,91
2016-01-01T04:13:44.224Z,91
2016-01-01T04:14:45.962Z,91
2016-01-01T04:15:47.246Z,91
2016-01-01T04:16:48.593Z,92
2016-01-01T04:17:50.111Z,92
2016-01-01T04:18:51.660Z,92
2016-01-01T04:19:53.210Z,92
2016-01-01T04:20:54.994Z,92
2016-01-01T04:21:56.107Z,92
2016-01-01T04:22:58.109Z,92
2016-01-01T04:23:59.971Z,92
2016-01-01T04:25:01.693Z,92
2016-01-01T04:26:03.243Z,92
2016-01-01T04:27:05.057Z,92
2016-01-01T04:28:06.858Z,92
2016-01-01T04:29:08.673Z,92
2016-01-01T04:30:10.207Z,92
2016-01-01T04:31:12.007Z,92
2016-01-01T04:32:13.260Z,92
2016-01-01T04:33:15.371Z,92
2016-01-01T04:34:16.983Z,92
2016-01-01T04:35:18.736Z,92
2016-01-01T04:36:20.270Z,92
2016-01-01T04:37:21.825Z,92
2016-01-01T04:38:23.390Z,92
2016-01-01T04:39:25.189Z,92
2016-01-01T04:40:26.551Z,92
2016-01-01T04:41:28.789Z,92
2016-01-01T04:42:30.339Z,92
2016-01-01T04:43:31.888Z,92
2016-01-01T04:44:33.751Z,92
2016-01-01T04:45:35.503Z,92
2016-01-01T04:46:37.287Z,92
2016-01-01T04:47:39.103Z,92
2016-01-01T04:48:40.905Z,92
2016-01-01T04:49:42.721Z,92
2016-01-01T04:50:44.536Z,92
2016-01-01T04:51:46.320Z,92
2016-01-01T04:52:48.151Z,92
2016-01-01T04:53:49.935Z,92
2016-01-01T04:54:51.813Z,92
2016-01-01T04:55:53.565Z,92
2016-01-01T04:56:55.349Z,92
2016-01-01T04:57:57.150Z,92
2016-01-01T04:58:58.965Z,92
2016-01-01T05:00:01.030Z,92
2016-01-01T05:01:02.846Z,92
2016-01-01T05:02:04.645Z,92
2016-01-01T05:03:06.694Z,92
2016-01-01T05:04:08.760Z,92
2016-01-01T05:05:10.888Z,92
2016-01-01T05:06:12.624Z,92
2016-01-01T05:07:14.690Z,92
2016-01-01T05:08:16.755Z,92
2016-01-01T05:09:18.821Z,92
2016-01-01T05:10:20.917Z,92
2016-01-01T05:11:22.951Z,92
2016-01-01T05:12:25.015Z,92
2016-01-01T05:13:27.066Z,92
2016-01-01T05:14:29.396Z,92
2016-01-01T05:15:31.337Z,92
2016-01-01T05:17:35.843Z,92
2016-01-01T05:18:38.157Z,92
2016-01-01T05:19:40.488Z,92
2016-01-01T05:20:42.804Z,92
2016-01-01T05:21:45.135Z,92
2016-01-01T05:22:47.451Z,92
2016-01-01T05:23:49.749Z,92
2016-01-01T05:24:52.081Z,92
2016-01-01T05:25:54.459Z,92
2016-01-01T05:26:56.227Z,92
2016-01-01T05:27:58.558Z,92
2016-01-01T05:29:00.842Z,92
2016-01-01T05:30:03.173Z,92
2016-01-01T05:31:05.487Z,92
2016-01-01T05:32:07.818Z,92
2016-01-01T05:33:10.134Z,92
2016-01-01T05:34:12.448Z,92
2016-01-01T05:35:14.765Z,92
2016-01-01T05:36:17.142Z,92
2016-01-01T05:37:18.895Z,92
2016-01-01T05:39:23.540Z,92
2016-01-01T05:40:25.857Z,92
2016-01-01T05:41:28.171Z,92
2016-01-01T05:42:30.503Z,92
2016-01-01T05:43:32.834Z,92
2016-01-01T05:44:35.133Z,92
2016-01-01T05:45:37.448Z,92
2016-01-01T05:46:39.826Z,92
2016-01-01T05:47:41.578Z,92
2016-01-01T05:48:43.909Z,92
2016-01-01T05:49:46.240Z,92
2016-01-01T05:50:48.540Z,92
2016-01-01T05:51:50.871Z,92
2016-01-01T05:52:53.186Z,92
2016-01-01T05:53:55.517Z,92
2016-01-01T05:54:57.848Z,92
2016-01-01T05:56:00.148Z,92
2016-01-01T05:57:02.526Z,92
2016-01-01T05:58:04.278Z,92
2016-01-01T05:59:06.609Z,92
2016-01-01T06:00:08.940Z,92
2016-01-01T06:01:10.818Z,92
2016-01-01T06:02:13.556Z,93
2016-01-01T06:03:12.042Z,93
2016-01-01T06:04:10.514Z,93
2016-01-01T06:05:09.017Z,93
2016-01-01T06:06:07.472Z,93
2016-01-01T06:07:05.991Z,93
2016-01-01T06:08:07.743Z,93
2016-01-01T06:09:06.496Z,93
2016-01-01T06:10:05.234Z,93
2016-01-01T06:11:03.956Z,93
2016-01-01T06:12:02.661Z,93
2016-01-01T06:13:01.414Z,93
2016-01-01T06:14:00.135Z,93
2016-01-01T06:14:58.870Z,93
2016-01-01T06:15:57.591Z,93
2016-01-01T06:16:56.391Z,93
2016-01-01T06:17:58.143Z,93
2016-01-01T06:18:56.865Z,93
2016-01-01T06:19:55.603Z,93
2016-01-01T06:20:54.323Z,93
2016-01-01T06:21:53.061Z,93
2016-01-01T06:22:51.797Z,93
2016-01-01T06:23:50.551Z,93
2016-01-01T06:24:49.273Z,93
2016-01-01T06:25:47.994Z,93
2016-01-01T06:26:46.778Z,93
2016-01-01T06:27:48.515Z,93
2016-01-01T06:28:47.252Z,93
2016-01-01T06:29:45.989Z,93
2016-01-01T06:30:44.711Z,93
2016-01-01T06:31:43.448Z,93
2016-01-01T06:32:42.184Z,93
2016-01-01T06:33:40.923Z,93
2016-01-01T06:34:39.644Z,93
2016-01-01T06:35:38.381Z,93
2016-01-01T06:36:37.180Z,93
2016-01-01T06:37:38.917Z,93
2016-01-01T06:38:37.655Z,93
2016-01-01T06:39:36.373Z,93
2016-01-01T06:40:35.095Z,93
2016-01-01T06:41:33.831Z,93
2016-01-01T06:42:32.569Z,93
2016-01-01T06:44:30.012Z,93
2016-01-01T06:45:28.749Z,93
2016-01-01T06:46:27.486Z,15
2016-01-01T06:47:29.177Z,15
2016-01-01T06:48:28.289Z,93
2016-01-01T06:49:27.010Z,93
2016-01-01T06:50:25.732Z,93
2016-01-01T06:51:24.469Z,93
2016-01-01T06:52:23.206Z,93
2016-01-01T06:53:21.943Z,93
2016-01-01T06:54:20.664Z,93
2016-01-01T06:55:19.386Z,93
2016-01-01T06:56:18.170Z,93
2016-01-01T06:57:19.923Z,93
2016-01-01T06:58:18.660Z,93
2016-01-01T06:59:17.397Z,93
2016-01-01T07:00:16.119Z,93
2016-01-01T07:01:14.855Z,93
2016-01-01T07:02:13.574Z,93
2016-01-01T07:03:12.311Z,93
2016-01-01T07:04:10.611Z,93
2016-01-01T07:05:09.770Z,93
2016-01-01T07:06:08.554Z,93
2016-01-01T07:07:10.294Z,93
2016-01-01T07:08:09.014Z,93
2016-01-01T07:09:07.735Z,93
2016-01-01T07:10:06.440Z,93
2016-01-01T07:11:05.146Z,93
2016-01-01T07:12:03.440Z,93
2016-01-01T07:13:02.594Z,93
2016-01-01T07:14:01.340Z,93
2016-01-01T07:15:00.057Z,93
2016-01-01T07:15:58.820Z,93
2016-01-01T07:17:00.586Z,93
2016-01-01T07:17:59.306Z,93
2016-01-01T07:18:58.040Z,93
2016-01-01T07:19:56.775Z,93
2016-01-01T07:20:55.510Z,93
2016-01-01T07:21:54.215Z,93
2016-01-01T07:22:52.951Z,93
2016-01-01T07:23:51.688Z,93
2016-01-01T07:24:50.422Z,93
2016-01-01T07:25:49.205Z,93
2016-01-01T07:26:50.957Z,93
2016-01-01T07:27:49.679Z,93
2016-01-01T07:28:48.416Z,93
2016-01-01T07:29:46.716Z,93
2016-01-01T07:30:45.859Z,93
2016-01-01T07:31:44.596Z,93
2016-01-01T07:32:43.333Z,93
2016-01-01T07:33:42.071Z,93
2016-01-01T07:34:40.808Z,93
2016-01-01T07:35:39.592Z,93
2016-01-01T07:36:41.314Z,93
2016-01-01T07:37:40.050Z,93
2016-01-01T07:38:38.788Z,93
2016-01-01T07:39:37.525Z,93
2016-01-01T07:40:36.262Z,93
2016-01-01T07:41:34.968Z,93
2016-01-01T07:42:33.705Z,93
2016-01-01T07:43:32.426Z,93
2016-01-01T07:44:31.179Z,93
2016-01-01T07:45:29.964Z,93
2016-01-01T07:46:31.717Z,93
2016-01-01T07:47:30.437Z,93
2016-01-01T07:48:29.172Z,93
2016-01-01T07:50:26.631Z,93
2016-01-01T07:51:25.367Z,93
2016-01-01T07:52:24.089Z,93
2016-01-01T07:53:22.811Z,93
2016-01-01T07:54:21.548Z,93
2016-01-01T07:55:20.348Z,93
2016-01-01T07:56:22.084Z,93
2016-01-01T07:57:20.822Z,93
2016-01-01T07:58:19.122Z,93
2016-01-01T07:59:18.265Z,93
2016-01-01T08:00:17.002Z,93
2016-01-01T08:01:15.739Z,93
2016-01-01T08:02:14.461Z,93
2016-01-01T08:03:13.182Z,93
2016-01-01T08:04:11.920Z,93
2016-01-01T08:05:10.719Z,93
2016-01-01T08:06:12.472Z,93
2016-01-01T08:07:11.209Z,93
2016-01-01T08:08:09.930Z,93
2016-01-01T08:09:08.652Z,93
2016-01-01T08:10:07.373Z,93
2016-01-01T08:11:06.108Z,93
2016-01-01T08:12:04.845Z,93
2016-01-01T08:13:03.145Z,93
2016-01-01T08:14:02.303Z,93
2016-01-01T08:15:01.072Z,93
2016-01-01T08:16:02.825Z,93
2016-01-01T08:17:01.561Z,93
2016-01-01T08:18:00.299Z,93
2016-01-01T08:18:59.020Z,94
2016-01-01T08:19:57.742Z,94
2016-01-01T08:20:56.479Z,94
2016-01-01T08:21:55.216Z,94
2016-01-01T08:22:53.938Z,94
2016-01-01T08:23:52.675Z,94
2016-01-01T08:24:51.443Z,93
2016-01-01T08:25:53.196Z,93
2016-01-01T08:26:55.495Z,93
2016-01-01T08:27:57.827Z,93
2016-01-01T08:29:00.158Z,93
2016-01-01T08:30:02.457Z,93
2016-01-01T08:31:04.789Z,92
2016-01-01T08:32:06.588Z,92
2016-01-01T08:33:08.403Z,92
2016-01-01T08:34:10.187Z,92
2016-01-01T08:35:11.533Z,92
2016-01-01T08:36:13.287Z,92
2016-01-01T08:37:14.320Z,91
2016-01-01T08:38:15.105Z,91
2016-01-01T08:39:15.450Z,91
2016-01-01T08:40:16.642Z,91
2016-01-01T08:41:17.425Z,91
2016-01-01T08:42:17.959Z,91
2016-01-01T08:43:18.478Z,91
2016-01-01T08:44:19.261Z,91
2016-01-01T08:45:20.092Z,91
2016-01-01T08:46:21.830Z,91
2016-01-01T08:47:22.614Z,91
2016-01-01T08:48:23.397Z,91
2016-01-01T08:49:23.931Z,91
2016-01-01T08:50:24.434Z,91
2016-01-01T08:51:24.953Z,91
2016-01-01T08:52:25.487Z,91
2016-01-01T08:53:26.271Z,91
2016-01-01T08:54:27.055Z,91
2016-01-01T08:55:27.869Z,91
2016-01-01T08:56:29.622Z,91
2016-01-01T08:57:30.407Z,91
2016-01-01T08:58:31.175Z,91
2016-01-01T08:59:31.741Z,90
2016-01-01T09:00:31.993Z,90
2016-01-01T09:01:32.261Z,90
2016-01-01T09:02:32.529Z,90
2016-01-01T09:03:32.799Z,90
2016-01-01T09:04:32.801Z,90
2016-01-01T09:05:32.600Z,90
2016-01-01T09:06:34.353Z,90
2016-01-01T09:07:34.105Z,90
2016-01-01T09:08:33.874Z,90
2016-01-01T09:09:33.608Z,89
2016-01-01T09:10:32.846Z,89
2016-01-01T09:11:32.083Z,89
2016-01-01T09:12:31.054Z,89
2016-01-01T09:13:29.791Z,89
2016-01-01T09:14:28.529Z,89
2016-01-01T09:15:27.312Z,89
2016-01-01T09:16:29.049Z,89
2016-01-01T09:17:27.787Z,88
2016-01-01T09:18:26.243Z,88
2016-01-01T09:19:28.557Z,88
2016-01-01T09:20:30.873Z,88
2016-01-01T09:21:33.188Z,88
2016-01-01T09:22:35.504Z,88
2016-01-01T09:23:37.834Z,88
2016-01-01T09:24:40.135Z,88
2016-01-01T09:25:42.496Z,88
2016-01-01T09:26:44.265Z,87
2016-01-01T09:27:46.065Z,87
2016-01-01T09:28:47.879Z,87
2016-01-01T09:29:49.649Z,87
2016-01-01T09:30:50.932Z,86
2016-01-01T09:31:51.716Z,86
2016-01-01T09:32:52.485Z,86
2016-01-01T09:33:53.285Z,85
2016-01-01T09:34:53.521Z,85
2016-01-01T09:35:53.586Z,86
2016-01-01T09:36:55.324Z,85
2016-01-01T09:37:55.107Z,84
2016-01-01T09:38:54.329Z,83
2016-01-01T09:39:56.629Z,81
2016-01-01T09:40:57.663Z,80
2016-01-01T09:41:57.868Z,78
2016-01-01T09:42:56.904Z,78
2016-01-01T09:43:55.624Z,78
2016-01-01T09:44:54.345Z,78
2016-01-01T09:45:53.380Z,78
2016-01-01T09:46:55.117Z,79
2016-01-01T09:47:54.620Z,79
2016-01-01T09:48:54.388Z,80
2016-01-01T09:49:54.641Z,80
2016-01-01T09:50:55.159Z,80
2016-01-01T09:51:55.928Z,81
2016-01-01T09:52:56.946Z,81
2016-01-01T09:53:58.246Z,81
2016-01-01T09:54:59.796Z,82
2016-01-01T09:56:01.220Z,82
2016-01-01T09:57:03.379Z,82
2016-01-01T09:58:05.695Z,83
2016-01-01T09:59:04.431Z,84
2016-01-01T10:00:03.668Z,84
2016-01-01T10:01:03.156Z,84
2016-01-01T10:02:02.892Z,84
2016-01-01T10:03:02.646Z,84
2016-01-01T10:04:02.415Z,85
2016-01-01T10:05:02.667Z,85
2016-01-01T10:06:02.981Z,86
2016-01-01T10:07:04.719Z,86
2016-01-01T10:08:05.237Z,85
2016-01-01T10:09:05.005Z,84
2016-01-01T10:10:04.224Z,83
2016-01-01T10:11:02.946Z,83
2016-01-01T10:12:01.402Z,83
2016-01-01T10:13:03.717Z,82
2016-01-01T10:14:05.517Z,82
2016-01-01T10:15:07.316Z,82
2016-01-01T10:16:09.412Z,82
2016-01-01T10:17:11.165Z,82
2016-01-01T10:18:13.481Z,82
2016-01-01T10:19:15.796Z,82
2016-01-01T10:20:18.111Z,82
2016-01-01T10:21:20.411Z,83
2016-01-01T10:22:18.867Z,83
2016-01-01T10:23:17.338Z,82
2016-01-01T10:24:19.653Z,82
2016-01-01T10:25:21.969Z,83
2016-01-01T10:26:24.331Z,83
2016-01-01T10:27:26.068Z,82
2016-01-01T10:28:28.117Z,82
2016-01-01T10:29:29.933Z,82
2016-01-01T10:30:31.733Z,82
2016-01-01T10:31:33.642Z,81
2016-01-01T10:32:35.066Z,81
2016-01-01T10:33:36.601Z,81
2016-01-01T10:34:38.134Z,81
2016-01-01T10:35:39.434Z,81
2016-01-01T10:36:40.514Z,80
2016-01-01T10:37:42.267Z,80
2016-01-01T10:38:43.020Z,81
2016-01-01T10:39:44.055Z,81
2016-01-01T10:40:45.088Z,81
2016-01-01T10:41:46.091Z,81
2016-01-01T10:42:47.391Z,82
2016-01-01T10:43:48.769Z,82
2016-01-01T10:44:51.068Z,83
2016-01-01T10:45:49.978Z,83
2016-01-01T10:46:48.745Z,83
2016-01-01T10:48:49.205Z,84
2016-01-01T10:49:48.192Z,83
2016-01-01T10:50:46.913Z,84
2016-01-01T10:51:45.900Z,84
2016-01-01T10:52:44.856Z,84
2016-01-01T10:53:43.827Z,83
2016-01-01T10:54:42.549Z,84
2016-01-01T10:55:41.536Z,84
2016-01-01T10:56:40.570Z,84
2016-01-01T10:57:42.375Z,84
2016-01-01T10:58:41.553Z,84
2016-01-01T10:59:40.697Z,84
2016-01-01T11:00:45.085Z,84
2016-01-01T11:01:39.425Z,84
2016-01-01T11:02:38.471Z,84
2016-01-01T11:03:37.426Z,84
2016-01-01T11:04:36.414Z,84
2016-01-01T11:05:35.398Z,84
2016-01-01T11:06:34.682Z,84
2016-01-01T11:07:36.420Z,84
2016-01-01T11:08:35.641Z,84
2016-01-01T11:09:34.882Z,84
2016-01-01T11:10:34.102Z,84
2016-01-01T11:11:33.605Z,84
2016-01-01T11:12:33.093Z,84
2016-01-01T11:13:32.565Z,84
2016-01-01T11:14:32.067Z,84
2016-01-01T11:15:31.539Z,84
2016-01-01T11:16:31.104Z,85
2016-01-01T11:17:32.825Z,84
2016-01-01T11:18:32.328Z,84
2016-01-01T11:19:31.566Z,84
2016-01-01T11:20:30.803Z,84
2016-01-01T11:21:30.040Z,84
2016-01-01T11:22:29.277Z,84
2016-01-01T11:23:28.483Z,84
2016-01-01T11:24:27.969Z,84
2016-01-01T11:25:27.473Z,84
2016-01-01T11:26:27.272Z,84
2016-01-01T11:27:29.010Z,84
2016-01-01T11:28:28.747Z,84
2016-01-01T11:29:28.500Z,85
2016-01-01T11:30:28.486Z,85
2016-01-01T11:32:28.508Z,85
2016-01-01T11:33:28.510Z,84
2016-01-01T11:34:28.247Z,84
2016-01-01T11:35:27.982Z,84
2016-01-01T11:36:27.797Z,84
2016-01-01T11:37:29.534Z,85
2016-01-01T11:38:29.521Z,84
2016-01-01T11:39:29.275Z,84
2016-01-01T11:40:29.011Z,85
2016-01-01T11:41:29.014Z,85
2016-01-01T11:42:29.079Z,85
2016-01-01T11:43:29.270Z,85
2016-01-01T11:44:29.538Z,85
2016-01-01T11:45:29.541Z,85
2016-01-01T11:46:29.606Z,85
2016-01-01T11:47:31.343Z,85
2016-01-01T11:48:31.596Z,85
2016-01-01T11:49:31.849Z,85
2016-01-01T11:50:32.118Z,85
2016-01-01T11:51:32.370Z,85
2016-01-01T11:52:32.623Z,85
2016-01-01T11:53:32.641Z,85
2016-01-01T11:54:32.878Z,85
2016-01-01T11:55:33.146Z,85
2016-01-01T11:56:33.462Z,85
2016-01-01T11:57:35.199Z,85
2016-01-01T11:58:35.717Z,85
2016-01-01T11:59:35.971Z,85
2016-01-01T12:00:36.488Z,85
2016-01-01T12:01:36.991Z,85
2016-01-01T12:02:37.088Z,86
2016-01-01T12:03:38.294Z,86
2016-01-01T12:04:39.062Z,86
2016-01-01T12:05:39.830Z,86
2016-01-01T12:06:40.662Z,86
2016-01-01T12:07:42.398Z,86
2016-01-01T12:08:43.168Z,86
2016-01-01T12:09:43.951Z,86
2016-01-01T12:10:44.704Z,86
2016-01-01T12:11:45.472Z,86
2016-01-01T12:12:46.257Z,86
2016-01-01T12:13:47.024Z,86
2016-01-01T12:14:47.809Z,86
2016-01-01T12:15:48.608Z,86
2016-01-01T12:16:49.393Z,86
2016-01-01T12:17:51.145Z,86
2016-01-01T12:18:51.914Z,86
2016-01-01T12:19:52.948Z,86
2016-01-01T12:20:53.763Z,86
2016-01-01T12:21:54.468Z,86
2016-01-01T12:22:55.253Z,86
2016-01-01T12:23:56.037Z,86
2016-01-01T12:24:56.805Z,86
2016-01-01T12:25:57.557Z,86
2016-01-01T12:26:58.388Z,86
2016-01-01T12:28:00.126Z,86
2016-01-01T12:29:00.894Z,86
2016-01-01T12:30:01.679Z,86
2016-01-01T12:31:02.432Z,86
2016-01-01T12:32:03.199Z,85
2016-01-01T12:34:04.237Z,85
2016-01-01T12:35:04.754Z,85
2016-01-01T12:36:05.257Z,85
2016-01-01T12:37:05.838Z,85
2016-01-01T12:38:07.590Z,86
2016-01-01T12:39:08.359Z,86
2016-01-01T12:40:09.127Z,86
2016-01-01T12:41:09.895Z,86
2016-01-01T12:42:10.664Z,86
2016-01-01T12:43:11.698Z,86
2016-01-01T12:44:12.498Z,86
2016-01-01T12:45:13.500Z,86
2016-01-01T12:46:14.785Z,86
2016-01-01T12:47:16.131Z,86
2016-01-01T12:48:17.868Z,86
2016-01-01T12:49:18.886Z,86
2016-01-01T12:50:19.920Z,86
2016-01-01T12:51:20.704Z,86
2016-01-01T12:52:21.722Z,86
2016-01-01T12:53:22.741Z,86
2016-01-01T12:54:23.775Z,86
2016-01-01T12:55:25.059Z,86
2016-01-01T12:56:26.359Z,86
2016-01-01T12:57:27.689Z,87
2016-01-01T12:58:29.427Z,87
2016-01-01T12:59:30.976Z,87
2016-01-01T13:00:32.511Z,87
2016-01-01T13:01:34.075Z,87
2016-01-01T13:02:35.594Z,87
2016-01-01T13:03:37.144Z,87
2016-01-01T13:04:38.928Z,87
2016-01-01T13:05:40.305Z,87
2016-01-01T13:06:42.542Z,87
2016-01-01T13:07:44.389Z,87
2016-01-01T13:08:46.126Z,87
2016-01-01T13:09:47.925Z,87
2016-01-01T13:10:49.726Z,87
2016-01-01T13:11:51.509Z,87
2016-01-01T13:12:53.591Z,88
2016-01-01T13:13:55.875Z,88
2016-01-01T13:14:58.174Z,87
2016-01-01T13:16:00.224Z,87
2016-01-01T13:17:02.305Z,88
2016-01-01T13:18:04.667Z,88
2016-01-01T13:19:06.403Z,88
2016-01-01T13:20:08.703Z,88
2016-01-01T13:21:10.722Z,88
2016-01-01T13:22:13.381Z,88
2016-01-01T13:23:15.650Z,88
2016-01-01T13:24:17.964Z,88
2016-01-01T13:25:20.264Z,87
2016-01-01T13:26:22.329Z,87
2016-01-01T13:27:24.394Z,87
2016-01-01T13:28:26.241Z,88
2016-01-01T13:29:27.994Z,88
2016-01-01T13:30:30.294Z,88
2016-01-01T13:31:32.593Z,88
2016-01-01T13:32:34.908Z,88
2016-01-01T13:33:37.224Z,88
2016-01-01T13:34:39.586Z,88
2016-01-01T13:35:41.838Z,88
2016-01-01T13:36:44.155Z,88
2016-01-01T13:37:46.469Z,88
2016-01-01T13:38:48.847Z,88
2016-01-01T13:39:50.616Z,88
2016-01-01T13:40:49.306Z,88
2016-01-01T13:41:48.027Z,88
2016-01-01T13:42:46.749Z,88
2016-01-01T13:43:45.470Z,88
2016-01-01T13:44:44.239Z,88
2016-01-01T13:45:42.911Z,88
2016-01-01T13:46:41.632Z,88
2016-01-01T13:47:40.353Z,88
2016-01-01T13:48:39.137Z,88
2016-01-01T13:49:40.890Z,88
2016-01-01T13:50:39.597Z,88
2016-01-01T13:51:38.318Z,88
2016-01-01T13:52:37.055Z,88
2016-01-01T13:53:35.776Z,88
2016-01-01T13:54:34.498Z,88
2016-01-01T13:55:33.204Z,88
2016-01-01T13:56:31.925Z,88
2016-01-01T13:57:30.663Z,88
2016-01-01T13:58:29.446Z,88
2016-01-01T13:59:31.184Z,88
2016-01-01T14:00:29.889Z,88
2016-01-01T14:01:28.627Z,88
2016-01-01T14:02:27.348Z,88
2016-01-01T14:03:26.069Z,88
2016-01-01T14:04:24.807Z,88
2016-01-01T14:05:23.496Z,88
2016-01-01T14:06:22.231Z,88
2016-01-01T14:07:20.953Z,88
2016-01-01T14:08:19.737Z,88
2016-01-01T14:09:21.475Z,88
2016-01-01T14:10:20.211Z,88
2016-01-01T14:11:18.916Z,88
2016-01-01T14:12:17.639Z,89
2016-01-01T14:13:16.626Z,89
2016-01-01T14:14:15.613Z,89
2016-01-01T14:15:14.850Z,89
2016-01-01T14:16:14.087Z,89
2016-01-01T14:17:13.308Z,89
2016-01-01T14:18:12.594Z,89
2016-01-01T14:19:14.346Z,89
2016-01-01T14:20:13.599Z,89
2016-01-01T14:21:12.819Z,89
2016-01-01T14:22:12.057Z,89
2016-01-01T14:23:11.560Z,89
2016-01-01T14:24:10.625Z,90
2016-01-01T14:25:10.799Z,89
2016-01-01T14:26:10.287Z,90
2016-01-01T14:27:10.119Z,90
2016-01-01T14:29:11.591Z,90
2016-01-01T14:30:11.344Z,90
2016-01-01T14:31:11.097Z,90
2016-01-01T14:32:10.835Z,90